sensor_id;sensor_type;location;lat;lon;timestamp;temperature;humidity
10873;DHT22;34586;53.616;10.032;2023-07-02T00:02:23;15.40;99.90
10873;DHT22;34586;53.616;10.032;2023-07-02T00:04:48;15.30;99.90
10873;DHT22;34586;53.616;10.032;2023-07-02T00:07:14;15.40;99.90
10873;DHT22;34586;53.616;10.032;2023-07-02T00:09:42;15.30;99.90
10873;DHT22;34586;53.616;10.032;2023-07-02T00:12:08;15.20;99.90
10873;DHT22;34586;53.616;10.032;2023-07-02T00:14:34;15.30;99.90
10873;DHT22;34586;53.616;10.032;2023-07-02T00:16:59;15.20;99.90
10873;DHT22;34586;53.616;10.032;2023-07-02T00:19:25;15.20;99.90
10873;DHT22;34586;53.616;10.032;2023-07-02T00:21:51;15.20;99.90
10873;DHT22;34586;53.616;10.032;2023-07-02T00:24:18;15.20;99.90
10873;DHT22;34586;53.616;10.032;2023-07-02T00:26:44;15.20;99.90
10873;DHT22;34586;53.616;10.032;2023-07-02T00:29:10;15.20;99.90
10873;DHT22;34586;53.616;10.032;2023-07-02T00:31:36;15.30;99.90
10873;DHT22;34586;53.616;10.032;2023-07-02T00:34:02;15.30;99.90
10873;DHT22;34586;53.616;10.032;2023-07-02T00:36:28;15.40;99.90
10873;DHT22;34586;53.616;10.032;2023-07-02T00:38:54;15.50;99.90
10873;DHT22;34586;53.616;10.032;2023-07-02T00:41:20;15.50;99.90
10873;DHT22;34586;53.616;10.032;2023-07-02T00:43:45;15.50;99.90
10873;DHT22;34586;53.616;10.032;2023-07-02T00:46:16;15.50;99.90
10873;DHT22;34586;53.616;10.032;2023-07-02T00:48:47;15.50;99.90
10873;DHT22;34586;53.616;10.032;2023-07-02T00:51:24;15.50;99.90
10873;DHT22;34586;53.616;10.032;2023-07-02T00:53:51;15.60;99.90
10873;DHT22;34586;53.616;10.032;2023-07-02T00:56:17;15.60;99.90
10873;DHT22;34586;53.616;10.032;2023-07-02T00:58:47;15.70;99.90
10873;DHT22;34586;53.616;10.032;2023-07-02T01:01:15;15.60;99.90
10873;DHT22;34586;53.616;10.032;2023-07-02T01:06:31;15.70;99.90
10873;DHT22;34586;53.616;10.032;2023-07-02T01:08:58;15.70;99.90
10873;DHT22;34586;53.616;10.032;2023-07-02T01:11:33;15.70;99.90
10873;DHT22;34586;53.616;10.032;2023-07-02T01:14:05;15.70;99.90
10873;DHT22;34586;53.616;10.032;2023-07-02T01:16:32;15.70;99.90
10873;DHT22;34586;53.616;10.032;2023-07-02T01:19:01;15.70;99.90
10873;DHT22;34586;53.616;10.032;2023-07-02T01:21:30;15.70;99.90
10873;DHT22;34586;53.616;10.032;2023-07-02T01:23:57;15.70;99.90
10873;DHT22;34586;53.616;10.032;2023-07-02T01:26:30;15.50;99.90
10873;DHT22;34586;53.616;10.032;2023-07-02T01:28:59;15.60;99.90
10873;DHT22;34586;53.616;10.032;2023-07-02T01:31:25;15.60;99.90
10873;DHT22;34586;53.616;10.032;2023-07-02T01:33:51;15.60;99.90
10873;DHT22;34586;53.616;10.032;2023-07-02T01:36:17;15.60;99.90
10873;DHT22;34586;53.616;10.032;2023-07-02T01:38:42;15.70;99.90
10873;DHT22;34586;53.616;10.032;2023-07-02T01:41:08;15.60;99.90
10873;DHT22;34586;53.616;10.032;2023-07-02T01:43:33;15.70;99.90
10873;DHT22;34586;53.616;10.032;2023-07-02T01:45:59;15.70;99.90
10873;DHT22;34586;53.616;10.032;2023-07-02T01:48:27;15.60;99.90
10873;DHT22;34586;53.616;10.032;2023-07-02T01:50:52;15.70;99.90
10873;DHT22;34586;53.616;10.032;2023-07-02T01:53:18;15.70;99.90
10873;DHT22;34586;53.616;10.032;2023-07-02T01:55:43;15.70;99.90
10873;DHT22;34586;53.616;10.032;2023-07-02T01:58:09;15.60;99.90
10873;DHT22;34586;53.616;10.032;2023-07-02T02:00:34;15.60;99.90
10873;DHT22;34586;53.616;10.032;2023-07-02T02:03:00;15.60;99.90
10873;DHT22;34586;53.616;10.032;2023-07-02T02:05:25;15.70;99.90
10873;DHT22;34586;53.616;10.032;2023-07-02T02:07:51;15.60;99.90
10873;DHT22;34586;53.616;10.032;2023-07-02T02:10:17;15.60;99.90
10873;DHT22;34586;53.616;10.032;2023-07-02T02:12:42;15.70;99.90
10873;DHT22;34586;53.616;10.032;2023-07-02T02:15:08;15.60;99.90
10873;DHT22;34586;53.616;10.032;2023-07-02T02:17:34;15.60;99.90
10873;DHT22;34586;53.616;10.032;2023-07-02T02:20:00;15.60;99.90
10873;DHT22;34586;53.616;10.032;2023-07-02T02:22:26;15.50;99.90
10873;DHT22;34586;53.616;10.032;2023-07-02T02:24:51;15.50;99.90
10873;DHT22;34586;53.616;10.032;2023-07-02T02:27:17;15.50;99.90
10873;DHT22;34586;53.616;10.032;2023-07-02T02:29:42;15.50;99.90
10873;DHT22;34586;53.616;10.032;2023-07-02T02:32:08;15.40;99.90
10873;DHT22;34586;53.616;10.032;2023-07-02T02:34:33;15.50;99.90
10873;DHT22;34586;53.616;10.032;2023-07-02T02:36:59;15.40;99.90
10873;DHT22;34586;53.616;10.032;2023-07-02T02:39:25;15.40;99.90
10873;DHT22;34586;53.616;10.032;2023-07-02T02:41:51;15.30;99.90
10873;DHT22;34586;53.616;10.032;2023-07-02T02:44:17;15.30;99.90
10873;DHT22;34586;53.616;10.032;2023-07-02T02:46:42;15.40;99.90
10873;DHT22;34586;53.616;10.032;2023-07-02T02:49:08;15.30;99.90
10873;DHT22;34586;53.616;10.032;2023-07-02T02:51:33;15.20;99.90
10873;DHT22;34586;53.616;10.032;2023-07-02T02:53:59;15.20;99.90
10873;DHT22;34586;53.616;10.032;2023-07-02T02:56:25;15.30;99.90
10873;DHT22;34586;53.616;10.032;2023-07-02T02:58:50;15.20;99.90
10873;DHT22;34586;53.616;10.032;2023-07-02T03:01:16;15.10;99.90
10873;DHT22;34586;53.616;10.032;2023-07-02T03:03:42;15.10;99.90
10873;DHT22;34586;53.616;10.032;2023-07-02T03:06:11;15.10;99.90
10873;DHT22;34586;53.616;10.032;2023-07-02T03:08:36;15.10;99.90
10873;DHT22;34586;53.616;10.032;2023-07-02T03:11:02;15.10;99.90
10873;DHT22;34586;53.616;10.032;2023-07-02T03:13:28;15.20;99.90
10873;DHT22;34586;53.616;10.032;2023-07-02T03:15:53;15.00;99.90
10873;DHT22;34586;53.616;10.032;2023-07-02T03:18:19;15.00;99.90
10873;DHT22;34586;53.616;10.032;2023-07-02T03:20:44;15.00;99.90
10873;DHT22;34586;53.616;10.032;2023-07-02T03:23:10;15.00;99.90
10873;DHT22;34586;53.616;10.032;2023-07-02T03:25:35;15.00;99.90
10873;DHT22;34586;53.616;10.032;2023-07-02T03:28:01;15.00;99.90
10873;DHT22;34586;53.616;10.032;2023-07-02T03:30:27;15.00;99.90
10873;DHT22;34586;53.616;10.032;2023-07-02T03:32:52;15.00;99.90
10873;DHT22;34586;53.616;10.032;2023-07-02T03:35:18;15.10;99.90
10873;DHT22;34586;53.616;10.032;2023-07-02T03:37:43;15.00;99.90
10873;DHT22;34586;53.616;10.032;2023-07-02T03:40:09;15.00;99.90
10873;DHT22;34586;53.616;10.032;2023-07-02T03:42:35;15.00;99.90
10873;DHT22;34586;53.616;10.032;2023-07-02T03:45:00;15.00;99.90
10873;DHT22;34586;53.616;10.032;2023-07-02T03:47:26;15.10;99.90
10873;DHT22;34586;53.616;10.032;2023-07-02T03:49:51;15.00;99.90
10873;DHT22;34586;53.616;10.032;2023-07-02T03:52:17;15.00;99.90
10873;DHT22;34586;53.616;10.032;2023-07-02T03:54:42;15.00;99.90
10873;DHT22;34586;53.616;10.032;2023-07-02T03:57:08;15.10;99.90
10873;DHT22;34586;53.616;10.032;2023-07-02T03:59:34;15.10;99.90
10873;DHT22;34586;53.616;10.032;2023-07-02T04:02:00;15.10;99.90
10873;DHT22;34586;53.616;10.032;2023-07-02T04:04:25;15.10;99.90
10873;DHT22;34586;53.616;10.032;2023-07-02T04:06:51;15.20;99.90
10873;DHT22;34586;53.616;10.032;2023-07-02T04:09:17;15.20;99.90
10873;DHT22;34586;53.616;10.032;2023-07-02T04:11:44;15.20;99.90
10873;DHT22;34586;53.616;10.032;2023-07-02T04:14:09;15.20;99.90
10873;DHT22;34586;53.616;10.032;2023-07-02T04:16:35;15.20;99.90
10873;DHT22;34586;53.616;10.032;2023-07-02T04:19:00;15.20;99.90
10873;DHT22;34586;53.616;10.032;2023-07-02T04:21:26;15.40;99.90
10873;DHT22;34586;53.616;10.032;2023-07-02T04:23:52;15.30;99.90
10873;DHT22;34586;53.616;10.032;2023-07-02T04:26:17;15.30;99.90
10873;DHT22;34586;53.616;10.032;2023-07-02T04:28:43;15.30;99.90
10873;DHT22;34586;53.616;10.032;2023-07-02T04:31:09;15.30;99.90
10873;DHT22;34586;53.616;10.032;2023-07-02T04:33:34;15.30;99.90
10873;DHT22;34586;53.616;10.032;2023-07-02T04:36:04;15.30;99.90
10873;DHT22;34586;53.616;10.032;2023-07-02T04:38:30;15.30;99.90
10873;DHT22;34586;53.616;10.032;2023-07-02T04:40:55;15.30;99.90
10873;DHT22;34586;53.616;10.032;2023-07-02T04:43:27;15.40;99.90
10873;DHT22;34586;53.616;10.032;2023-07-02T04:45:55;15.40;99.90
10873;DHT22;34586;53.616;10.032;2023-07-02T04:48:20;15.50;99.90
10873;DHT22;34586;53.616;10.032;2023-07-02T04:50:46;15.50;99.90
10873;DHT22;34586;53.616;10.032;2023-07-02T04:53:12;15.50;99.90
10873;DHT22;34586;53.616;10.032;2023-07-02T04:55:38;15.40;99.90
10873;DHT22;34586;53.616;10.032;2023-07-02T04:58:03;15.50;99.90
10873;DHT22;34586;53.616;10.032;2023-07-02T05:00:29;15.60;99.90
10873;DHT22;34586;53.616;10.032;2023-07-02T05:02:54;15.50;99.90
10873;DHT22;34586;53.616;10.032;2023-07-02T05:05:20;15.60;99.90
10873;DHT22;34586;53.616;10.032;2023-07-02T05:07:46;15.60;99.90
10873;DHT22;34586;53.616;10.032;2023-07-02T05:10:11;15.60;99.90
10873;DHT22;34586;53.616;10.032;2023-07-02T05:12:37;15.70;99.90
10873;DHT22;34586;53.616;10.032;2023-07-02T05:15:03;15.60;99.90
10873;DHT22;34586;53.616;10.032;2023-07-02T05:17:28;15.70;99.90
10873;DHT22;34586;53.616;10.032;2023-07-02T05:19:54;15.80;99.90
10873;DHT22;34586;53.616;10.032;2023-07-02T05:22:19;15.80;99.90
10873;DHT22;34586;53.616;10.032;2023-07-02T05:24:45;15.80;99.90
10873;DHT22;34586;53.616;10.032;2023-07-02T05:27:11;15.80;99.90
10873;DHT22;34586;53.616;10.032;2023-07-02T05:29:37;15.80;99.90
10873;DHT22;34586;53.616;10.032;2023-07-02T05:32:03;15.80;99.90
10873;DHT22;34586;53.616;10.032;2023-07-02T05:34:28;15.80;99.90
10873;DHT22;34586;53.616;10.032;2023-07-02T05:36:54;15.90;99.90
10873;DHT22;34586;53.616;10.032;2023-07-02T05:39:19;15.90;99.90
10873;DHT22;34586;53.616;10.032;2023-07-02T05:41:47;15.90;99.90
10873;DHT22;34586;53.616;10.032;2023-07-02T05:44:12;16.00;99.90
10873;DHT22;34586;53.616;10.032;2023-07-02T05:46:38;16.00;99.90
10873;DHT22;34586;53.616;10.032;2023-07-02T05:49:04;16.00;99.90
10873;DHT22;34586;53.616;10.032;2023-07-02T05:51:31;16.10;99.90
10873;DHT22;34586;53.616;10.032;2023-07-02T05:53:57;16.10;99.90
10873;DHT22;34586;53.616;10.032;2023-07-02T05:56:22;16.20;99.90
10873;DHT22;34586;53.616;10.032;2023-07-02T05:58:48;16.20;99.90
10873;DHT22;34586;53.616;10.032;2023-07-02T06:01:15;16.30;99.90
10873;DHT22;34586;53.616;10.032;2023-07-02T06:03:40;16.30;99.90
10873;DHT22;34586;53.616;10.032;2023-07-02T06:06:07;16.30;92.30
10873;DHT22;34586;53.616;10.032;2023-07-02T06:08:34;16.30;99.90
10873;DHT22;34586;53.616;10.032;2023-07-02T06:10:59;16.40;99.90
10873;DHT22;34586;53.616;10.032;2023-07-02T06:13:25;16.50;64.30
10873;DHT22;34586;53.616;10.032;2023-07-02T06:15:51;16.20;26.50
10873;DHT22;34586;53.616;10.032;2023-07-02T06:18:16;16.60;57.10
10873;DHT22;34586;53.616;10.032;2023-07-02T06:20:43;16.60;41.40
10873;DHT22;34586;53.616;10.032;2023-07-02T06:23:08;16.70;1.00
10873;DHT22;34586;53.616;10.032;2023-07-02T06:25:34;16.60;1.00
10873;DHT22;34586;53.616;10.032;2023-07-02T06:27:59;16.70;1.20
10873;DHT22;34586;53.616;10.032;2023-07-02T06:30:25;16.70;1.00
10873;DHT22;34586;53.616;10.032;2023-07-02T06:32:51;16.70;1.00
10873;DHT22;34586;53.616;10.032;2023-07-02T06:35:17;16.70;1.00
10873;DHT22;34586;53.616;10.032;2023-07-02T06:37:43;16.80;1.00
10873;DHT22;34586;53.616;10.032;2023-07-02T06:40:09;16.80;1.00
10873;DHT22;34586;53.616;10.032;2023-07-02T06:42:35;16.90;1.00
10873;DHT22;34586;53.616;10.032;2023-07-02T06:45:02;16.90;1.00
10873;DHT22;34586;53.616;10.032;2023-07-02T06:47:27;17.00;1.00
10873;DHT22;34586;53.616;10.032;2023-07-02T06:49:53;17.00;1.00
10873;DHT22;34586;53.616;10.032;2023-07-02T06:52:19;17.00;1.00
10873;DHT22;34586;53.616;10.032;2023-07-02T06:54:44;17.10;99.90
10873;DHT22;34586;53.616;10.032;2023-07-02T06:57:10;17.30;99.90
10873;DHT22;34586;53.616;10.032;2023-07-02T06:59:36;17.40;99.90
10873;DHT22;34586;53.616;10.032;2023-07-02T07:02:02;17.60;99.90
10873;DHT22;34586;53.616;10.032;2023-07-02T07:04:27;17.80;39.60
10873;DHT22;34586;53.616;10.032;2023-07-02T07:06:53;17.90;1.00
10873;DHT22;34586;53.616;10.032;2023-07-02T07:09:21;17.90;29.80
10873;DHT22;34586;53.616;10.032;2023-07-02T07:11:47;17.90;22.00
10873;DHT22;34586;53.616;10.032;2023-07-02T07:14:13;18.00;92.00
10873;DHT22;34586;53.616;10.032;2023-07-02T07:16:38;18.00;99.90
10873;DHT22;34586;53.616;10.032;2023-07-02T07:19:04;18.00;99.90
10873;DHT22;34586;53.616;10.032;2023-07-02T07:21:30;18.10;1.00
10873;DHT22;34586;53.616;10.032;2023-07-02T07:23:56;18.00;1.00
10873;DHT22;34586;53.616;10.032;2023-07-02T07:26:21;17.80;1.00
10873;DHT22;34586;53.616;10.032;2023-07-02T07:28:47;17.70;1.00
10873;DHT22;34586;53.616;10.032;2023-07-02T07:31:12;17.60;49.40
10873;DHT22;34586;53.616;10.032;2023-07-02T07:33:38;17.60;99.90
10873;DHT22;34586;53.616;10.032;2023-07-02T07:36:04;17.60;1.00
10873;DHT22;34586;53.616;10.032;2023-07-02T07:38:29;17.70;1.00
10873;DHT22;34586;53.616;10.032;2023-07-02T07:40:55;17.80;99.90
10873;DHT22;34586;53.616;10.032;2023-07-02T07:43:21;17.90;99.90
10873;DHT22;34586;53.616;10.032;2023-07-02T07:45:46;16.70;99.90
10873;DHT22;34586;53.616;10.032;2023-07-02T07:48:12;18.00;99.90
10873;DHT22;34586;53.616;10.032;2023-07-02T07:50:38;17.90;99.90
10873;DHT22;34586;53.616;10.032;2023-07-02T07:53:03;17.90;99.90
10873;DHT22;34586;53.616;10.032;2023-07-02T07:55:29;17.90;99.90
10873;DHT22;34586;53.616;10.032;2023-07-02T07:57:54;17.90;99.90
10873;DHT22;34586;53.616;10.032;2023-07-02T08:00:20;17.90;99.90
10873;DHT22;34586;53.616;10.032;2023-07-02T08:02:46;17.90;99.90
10873;DHT22;34586;53.616;10.032;2023-07-02T08:05:12;17.80;99.90
10873;DHT22;34586;53.616;10.032;2023-07-02T08:07:38;17.80;99.90
10873;DHT22;34586;53.616;10.032;2023-07-02T08:10:04;17.90;94.30
10873;DHT22;34586;53.616;10.032;2023-07-02T08:12:30;18.00;1.00
10873;DHT22;34586;53.616;10.032;2023-07-02T08:14:56;18.10;1.00
10873;DHT22;34586;53.616;10.032;2023-07-02T08:17:22;18.10;99.90
10873;DHT22;34586;53.616;10.032;2023-07-02T08:19:47;18.40;1.00
10873;DHT22;34586;53.616;10.032;2023-07-02T08:22:13;18.70;1.00
10873;DHT22;34586;53.616;10.032;2023-07-02T08:24:39;18.80;99.90
10873;DHT22;34586;53.616;10.032;2023-07-02T08:27:05;18.80;99.90
10873;DHT22;34586;53.616;10.032;2023-07-02T08:29:31;18.70;99.90
10873;DHT22;34586;53.616;10.032;2023-07-02T08:31:56;18.50;99.90
10873;DHT22;34586;53.616;10.032;2023-07-02T08:34:22;18.30;99.90
10873;DHT22;34586;53.616;10.032;2023-07-02T08:36:48;18.20;1.00
10873;DHT22;34586;53.616;10.032;2023-07-02T08:39:14;18.10;99.90
10873;DHT22;34586;53.616;10.032;2023-07-02T08:41:44;18.10;99.90
10873;DHT22;34586;53.616;10.032;2023-07-02T08:44:14;18.20;99.90
10873;DHT22;34586;53.616;10.032;2023-07-02T08:46:41;18.30;99.90
10873;DHT22;34586;53.616;10.032;2023-07-02T08:49:07;18.30;1.00
10873;DHT22;34586;53.616;10.032;2023-07-02T08:51:33;18.30;1.00
10873;DHT22;34586;53.616;10.032;2023-07-02T08:53:59;18.40;99.90
10873;DHT22;34586;53.616;10.032;2023-07-02T08:56:25;18.50;99.90
10873;DHT22;34586;53.616;10.032;2023-07-02T08:58:52;18.70;99.90
10873;DHT22;34586;53.616;10.032;2023-07-02T09:01:18;18.80;99.90
10873;DHT22;34586;53.616;10.032;2023-07-02T09:03:43;18.90;99.90
10873;DHT22;34586;53.616;10.032;2023-07-02T09:06:10;19.00;99.90
10873;DHT22;34586;53.616;10.032;2023-07-02T09:08:36;19.20;99.90
10873;DHT22;34586;53.616;10.032;2023-07-02T09:11:12;19.40;1.00
10873;DHT22;34586;53.616;10.032;2023-07-02T09:13:51;19.40;1.00
10873;DHT22;34586;53.616;10.032;2023-07-02T09:16:33;19.40;1.00
10873;DHT22;34586;53.616;10.032;2023-07-02T09:19:07;19.20;1.00
10873;DHT22;34586;53.616;10.032;2023-07-02T09:21:45;19.00;1.00
10873;DHT22;34586;53.616;10.032;2023-07-02T09:24:19;18.70;99.90
10873;DHT22;34586;53.616;10.032;2023-07-02T09:26:55;18.40;99.90
10873;DHT22;34586;53.616;10.032;2023-07-02T09:29:31;18.00;59.60
10873;DHT22;34586;53.616;10.032;2023-07-02T09:32:03;17.80;1.00
10873;DHT22;34586;53.616;10.032;2023-07-02T09:34:30;17.50;99.90
10873;DHT22;34586;53.616;10.032;2023-07-02T09:36:57;17.20;1.00
10873;DHT22;34586;53.616;10.032;2023-07-02T09:39:31;16.90;1.00
10873;DHT22;34586;53.616;10.032;2023-07-02T09:42:05;16.80;99.90
10873;DHT22;34586;53.616;10.032;2023-07-02T09:44:32;16.90;99.90
10873;DHT22;34586;53.616;10.032;2023-07-02T09:47:02;17.00;99.90
10873;DHT22;34586;53.616;10.032;2023-07-02T09:49:32;17.30;99.90
10873;DHT22;34586;53.616;10.032;2023-07-02T09:52:00;17.60;1.00
10873;DHT22;34586;53.616;10.032;2023-07-02T09:54:27;17.60;1.00
10873;DHT22;34586;53.616;10.032;2023-07-02T09:56:53;17.60;99.90
10873;DHT22;34586;53.616;10.032;2023-07-02T09:59:18;17.60;99.90
10873;DHT22;34586;53.616;10.032;2023-07-02T10:01:44;17.80;99.90
10873;DHT22;34586;53.616;10.032;2023-07-02T10:04:14;18.00;1.00
10873;DHT22;34586;53.616;10.032;2023-07-02T10:06:54;18.20;1.00
10873;DHT22;34586;53.616;10.032;2023-07-02T10:09:21;18.30;99.90
10873;DHT22;34586;53.616;10.032;2023-07-02T10:11:59;18.40;99.90
10873;DHT22;34586;53.616;10.032;2023-07-02T10:14:24;18.40;99.90
10873;DHT22;34586;53.616;10.032;2023-07-02T10:16:54;18.50;1.00
10873;DHT22;34586;53.616;10.032;2023-07-02T10:19:20;18.70;99.90
10873;DHT22;34586;53.616;10.032;2023-07-02T10:21:46;18.80;99.90
10873;DHT22;34586;53.616;10.032;2023-07-02T10:24:16;19.00;99.90
10873;DHT22;34586;53.616;10.032;2023-07-02T10:26:55;19.20;99.90
10873;DHT22;34586;53.616;10.032;2023-07-02T10:29:23;19.50;33.50
10873;DHT22;34586;53.616;10.032;2023-07-02T10:31:59;19.70;1.00
10873;DHT22;34586;53.616;10.032;2023-07-02T10:34:43;19.70;1.00
10873;DHT22;34586;53.616;10.032;2023-07-02T10:37:09;19.70;1.00
10873;DHT22;34586;53.616;10.032;2023-07-02T10:39:38;19.50;35.90
10873;DHT22;34586;53.616;10.032;2023-07-02T10:42:09;19.30;1.00
10873;DHT22;34586;53.616;10.032;2023-07-02T10:44:59;19.20;1.00
10873;DHT22;34586;53.616;10.032;2023-07-02T10:47:25;19.20;1.00
10873;DHT22;34586;53.616;10.032;2023-07-02T10:49:51;19.20;1.00
10873;DHT22;34586;53.616;10.032;2023-07-02T10:52:16;19.10;1.00
10873;DHT22;34586;53.616;10.032;2023-07-02T10:54:44;19.00;1.00
10873;DHT22;34586;53.616;10.032;2023-07-02T10:57:12;19.00;1.00
10873;DHT22;34586;53.616;10.032;2023-07-02T10:59:38;19.10;1.00
10873;DHT22;34586;53.616;10.032;2023-07-02T11:02:04;19.20;1.00
10873;DHT22;34586;53.616;10.032;2023-07-02T11:04:32;19.30;1.00
10873;DHT22;34586;53.616;10.032;2023-07-02T11:06:59;19.20;1.00
10873;DHT22;34586;53.616;10.032;2023-07-02T11:09:25;19.30;1.00
10873;DHT22;34586;53.616;10.032;2023-07-02T11:11:56;19.20;1.00
10873;DHT22;34586;53.616;10.032;2023-07-02T11:14:33;19.20;1.00
10873;DHT22;34586;53.616;10.032;2023-07-02T11:17:03;19.30;1.00
10873;DHT22;34586;53.616;10.032;2023-07-02T11:19:31;19.40;99.90
10873;DHT22;34586;53.616;10.032;2023-07-02T11:21:58;19.50;1.00
10873;DHT22;34586;53.616;10.032;2023-07-02T11:26:55;19.90;99.90
10873;DHT22;34586;53.616;10.032;2023-07-02T11:29:22;19.90;99.90
10873;DHT22;34586;53.616;10.032;2023-07-02T11:31:47;19.90;99.90
10873;DHT22;34586;53.616;10.032;2023-07-02T11:34:13;19.70;99.90
10873;DHT22;34586;53.616;10.032;2023-07-02T11:36:39;19.60;99.90
10873;DHT22;34586;53.616;10.032;2023-07-02T11:39:05;19.50;1.00
10873;DHT22;34586;53.616;10.032;2023-07-02T11:41:41;19.80;99.90
10873;DHT22;34586;53.616;10.032;2023-07-02T11:44:07;20.00;99.90
10873;DHT22;34586;53.616;10.032;2023-07-02T11:46:33;20.40;99.90
10873;DHT22;34586;53.616;10.032;2023-07-02T11:49:03;20.60;99.90
10873;DHT22;34586;53.616;10.032;2023-07-02T11:51:38;20.90;99.90
10873;DHT22;34586;53.616;10.032;2023-07-02T11:54:04;21.00;99.90
10873;DHT22;34586;53.616;10.032;2023-07-02T11:56:30;20.80;99.90
10873;DHT22;34586;53.616;10.032;2023-07-02T11:58:56;20.60;99.90
10873;DHT22;34586;53.616;10.032;2023-07-02T12:01:22;20.20;99.90
10873;DHT22;34586;53.616;10.032;2023-07-02T12:03:47;19.80;99.90
10873;DHT22;34586;53.616;10.032;2023-07-02T12:06:13;19.60;99.90
10873;DHT22;34586;53.616;10.032;2023-07-02T12:08:38;19.40;99.90
10873;DHT22;34586;53.616;10.032;2023-07-02T12:11:04;19.10;99.90
10873;DHT22;34586;53.616;10.032;2023-07-02T12:13:30;18.80;99.90
10873;DHT22;34586;53.616;10.032;2023-07-02T12:15:55;18.70;1.00
10873;DHT22;34586;53.616;10.032;2023-07-02T12:18:21;18.70;1.00
10873;DHT22;34586;53.616;10.032;2023-07-02T12:20:46;18.70;1.00
10873;DHT22;34586;53.616;10.032;2023-07-02T12:23:12;18.90;1.00
10873;DHT22;34586;53.616;10.032;2023-07-02T12:25:38;19.40;1.00
10873;DHT22;34586;53.616;10.032;2023-07-02T12:28:04;19.70;1.00
10873;DHT22;34586;53.616;10.032;2023-07-02T12:30:30;19.90;1.00
10873;DHT22;34586;53.616;10.032;2023-07-02T12:32:56;21.00;99.90
10873;DHT22;34586;53.616;10.032;2023-07-02T12:35:22;22.40;99.90
10873;DHT22;34586;53.616;10.032;2023-07-02T12:37:52;23.60;99.90
10873;DHT22;34586;53.616;10.032;2023-07-02T12:40:19;24.20;99.90
10873;DHT22;34586;53.616;10.032;2023-07-02T12:42:46;24.80;99.90
10873;DHT22;34586;53.616;10.032;2023-07-02T12:45:13;25.30;99.90
10873;DHT22;34586;53.616;10.032;2023-07-02T12:47:39;26.00;99.90
10873;DHT22;34586;53.616;10.032;2023-07-02T12:50:06;27.30;99.90
10873;DHT22;34586;53.616;10.032;2023-07-02T12:52:32;27.40;99.90
10873;DHT22;34586;53.616;10.032;2023-07-02T12:54:58;27.80;99.90
10873;DHT22;34586;53.616;10.032;2023-07-02T12:57:24;27.50;99.90
10873;DHT22;34586;53.616;10.032;2023-07-02T12:59:52;27.20;99.90
10873;DHT22;34586;53.616;10.032;2023-07-02T13:02:17;27.30;99.90
10873;DHT22;34586;53.616;10.032;2023-07-02T13:04:43;27.40;99.90
10873;DHT22;34586;53.616;10.032;2023-07-02T13:07:09;27.10;99.90
10873;DHT22;34586;53.616;10.032;2023-07-02T13:09:34;26.90;99.90
10873;DHT22;34586;53.616;10.032;2023-07-02T13:12:00;26.80;99.90
10873;DHT22;34586;53.616;10.032;2023-07-02T13:14:25;26.40;99.90
10873;DHT22;34586;53.616;10.032;2023-07-02T13:16:51;26.00;99.90
10873;DHT22;34586;53.616;10.032;2023-07-02T13:19:16;25.90;99.90
10873;DHT22;34586;53.616;10.032;2023-07-02T13:21:42;26.10;99.90
10873;DHT22;34586;53.616;10.032;2023-07-02T13:24:07;26.30;99.90
10873;DHT22;34586;53.616;10.032;2023-07-02T13:26:33;25.90;99.90
10873;DHT22;34586;53.616;10.032;2023-07-02T13:28:59;26.00;99.90
10873;DHT22;34586;53.616;10.032;2023-07-02T13:31:24;26.10;99.90
10873;DHT22;34586;53.616;10.032;2023-07-02T13:33:50;26.80;99.90
10873;DHT22;34586;53.616;10.032;2023-07-02T13:36:16;26.70;99.90
10873;DHT22;34586;53.616;10.032;2023-07-02T13:38:42;26.40;99.90
10873;DHT22;34586;53.616;10.032;2023-07-02T13:41:08;26.30;99.90
10873;DHT22;34586;53.616;10.032;2023-07-02T13:43:34;25.90;99.90
10873;DHT22;34586;53.616;10.032;2023-07-02T13:46:00;26.40;99.90
10873;DHT22;34586;53.616;10.032;2023-07-02T13:48:25;27.00;99.90
10873;DHT22;34586;53.616;10.032;2023-07-02T13:50:51;26.70;99.90
10873;DHT22;34586;53.616;10.032;2023-07-02T13:53:17;26.60;99.90
10873;DHT22;34586;53.616;10.032;2023-07-02T13:55:42;26.60;99.90
10873;DHT22;34586;53.616;10.032;2023-07-02T13:58:08;26.50;99.90
10873;DHT22;34586;53.616;10.032;2023-07-02T14:00:33;26.20;99.90
10873;DHT22;34586;53.616;10.032;2023-07-02T14:02:59;26.30;99.90
10873;DHT22;34586;53.616;10.032;2023-07-02T14:05:25;26.00;99.90
10873;DHT22;34586;53.616;10.032;2023-07-02T14:07:50;25.70;99.90
10873;DHT22;34586;53.616;10.032;2023-07-02T14:10:17;25.80;99.90
10873;DHT22;34586;53.616;10.032;2023-07-02T14:12:42;25.90;99.90
10873;DHT22;34586;53.616;10.032;2023-07-02T14:15:09;26.00;99.90
10873;DHT22;34586;53.616;10.032;2023-07-02T14:17:35;26.10;99.90
10873;DHT22;34586;53.616;10.032;2023-07-02T14:20:02;26.10;99.90
10873;DHT22;34586;53.616;10.032;2023-07-02T14:22:28;25.70;99.90
10873;DHT22;34586;53.616;10.032;2023-07-02T14:24:54;25.60;99.90
10873;DHT22;34586;53.616;10.032;2023-07-02T14:27:19;24.70;99.90
10873;DHT22;34586;53.616;10.032;2023-07-02T14:29:45;23.90;99.90
10873;DHT22;34586;53.616;10.032;2023-07-02T14:32:13;23.40;99.90
10873;DHT22;34586;53.616;10.032;2023-07-02T14:34:39;22.90;99.90
10873;DHT22;34586;53.616;10.032;2023-07-02T14:37:05;22.50;99.90
10873;DHT22;34586;53.616;10.032;2023-07-02T14:39:31;22.40;99.90
10873;DHT22;34586;53.616;10.032;2023-07-02T14:41:57;22.40;99.90
10873;DHT22;34586;53.616;10.032;2023-07-02T14:44:22;22.30;99.90
10873;DHT22;34586;53.616;10.032;2023-07-02T14:46:48;22.70;99.90
10873;DHT22;34586;53.616;10.032;2023-07-02T14:49:14;23.50;99.90
10873;DHT22;34586;53.616;10.032;2023-07-02T14:51:40;24.20;99.90
10873;DHT22;34586;53.616;10.032;2023-07-02T14:54:06;24.70;99.90
10873;DHT22;34586;53.616;10.032;2023-07-02T14:56:33;24.70;99.90
10873;DHT22;34586;53.616;10.032;2023-07-02T14:58:59;24.10;99.90
10873;DHT22;34586;53.616;10.032;2023-07-02T15:01:24;23.50;99.90
10873;DHT22;34586;53.616;10.032;2023-07-02T15:03:50;23.00;99.90
10873;DHT22;34586;53.616;10.032;2023-07-02T15:06:17;23.00;1.00
10873;DHT22;34586;53.616;10.032;2023-07-02T15:08:44;23.30;1.00
10873;DHT22;34586;53.616;10.032;2023-07-02T15:11:13;23.80;99.90
10873;DHT22;34586;53.616;10.032;2023-07-02T15:13:40;24.50;99.90
10873;DHT22;34586;53.616;10.032;2023-07-02T15:16:07;24.60;99.90
10873;DHT22;34586;53.616;10.032;2023-07-02T15:18:33;24.20;99.90
10873;DHT22;34586;53.616;10.032;2023-07-02T15:20:59;23.60;99.90